Time;durP1;ratioP1;P1;durP2;ratioP2;P2;SDS_P1;SDS_P2;PMS_P1;PMS_P2;Temp;Humidity;BMP_temperature;BMP_pressure;BME280_temperature;BME280_humidity;BME280_pressure;Samples;Min_cycle;Max_cycle;Signal;HPM_P1;HPM_P2
2022/05/05 00:01:28;;;;;;;11.60;6.65;;;3.90;85.80;;;;;;5072788;28;20085;-76
2022/05/05 00:03:54;;;;;;;12.63;6.45;;;3.90;86.00;;;;;;5090828;28;20443;-76
2022/05/05 00:06:20;;;;;;;11.38;5.90;;;3.90;86.30;;;;;;5088702;28;20035;-76
2022/05/05 00:08:45;;;;;;;10.30;6.40;;;3.90;86.30;;;;;;5091062;28;20028;-76
2022/05/05 00:16:39;;;;;;;12.55;7.53;;;3.80;86.80;;;;;;5080240;28;20174;-76
2022/05/05 00:19:05;;;;;;;13.23;7.20;;;3.80;87.10;;;;;;5086205;28;20118;-77
2022/05/05 00:21:30;;;;;;;13.07;6.75;;;3.70;87.10;;;;;;5093961;28;20090;-77
2022/05/05 00:23:56;;;;;;;8.38;6.18;;;3.60;86.70;;;;;;5093958;28;20020;-77
2022/05/05 00:26:22;;;;;;;11.68;6.60;;;3.50;86.70;;;;;;5097572;28;20542;-76
2022/05/05 00:28:47;;;;;;;10.95;6.15;;;3.50;86.80;;;;;;5099899;28;20039;-76
2022/05/05 00:31:13;;;;;;;11.95;6.53;;;3.40;86.50;;;;;;5094574;28;20047;-77
2022/05/05 00:33:39;;;;;;;11.57;6.45;;;3.40;86.50;;;;;;5101139;28;20012;-76
2022/05/05 00:36:04;;;;;;;13.20;6.85;;;3.30;86.50;;;;;;5110003;28;20115;-76
2022/05/05 00:38:30;;;;;;;14.13;7.10;;;3.30;86.70;;;;;;5107976;28;20016;-76
2022/05/05 00:40:56;;;;;;;13.43;7.70;;;3.20;86.90;;;;;;5107596;28;20047;-76
2022/05/05 00:43:22;;;;;;;17.05;8.23;;;3.20;87.50;;;;;;5105491;28;20070;-77
2022/05/05 00:45:48;;;;;;;17.75;8.50;;;3.20;87.90;;;;;;5098406;28;20024;-76
2022/05/05 00:48:14;;;;;;;14.15;8.52;;;3.10;87.90;;;;;;5103827;28;20352;-78
2022/05/05 00:50:40;;;;;;;17.73;8.38;;;3.10;88.10;;;;;;5089554;28;20456;-76
2022/05/05 00:53:06;;;;;;;13.98;8.32;;;3.10;88.30;;;;;;5090414;28;20036;-76
2022/05/05 00:55:34;;;;;;;16.23;8.32;;;3.10;88.30;;;;;;5099888;28;20034;-75
2022/05/05 00:58:02;;;;;;;16.02;8.15;;;3.10;88.50;;;;;;5086007;28;20078;-76
2022/05/05 01:00:28;;;;;;;12.98;8.20;;;2.90;88.20;;;;;;5093665;28;20031;-76
2022/05/05 01:02:54;;;;;;;13.35;8.57;;;2.90;87.90;;;;;;5092921;28;20390;-75
2022/05/05 01:05:20;;;;;;;15.63;8.20;;;2.90;88.10;;;;;;5090293;28;20040;-76
2022/05/05 01:07:47;;;;;;;14.80;8.35;;;2.80;88.20;;;;;;5095885;28;20150;-76
2022/05/05 01:10:13;;;;;;;13.43;8.65;;;2.80;88.40;;;;;;5093835;28;20020;-76
2022/05/05 01:12:39;;;;;;;15.77;9.50;;;2.80;88.70;;;;;;5104913;28;20035;-76
2022/05/05 01:15:05;;;;;;;14.40;9.18;;;2.80;88.80;;;;;;5088537;28;20016;-76
2022/05/05 01:17:31;;;;;;;13.65;8.68;;;2.70;88.90;;;;;;5090884;28;20486;-76
2022/05/05 01:19:56;;;;;;;24.10;10.18;;;2.60;88.80;;;;;;5094112;28;20023;-76
2022/05/05 01:22:25;;;;;;;14.40;9.73;;;2.60;88.90;;;;;;5099555;28;20430;-76
2022/05/05 01:30:20;;;;;;;15.20;10.02;;;2.60;89.40;;;;;;5091081;28;20055;-75
2022/05/05 01:32:45;;;;;;;18.70;10.55;;;2.50;89.40;;;;;;5108646;28;20063;-76
2022/05/05 01:35:11;;;;;;;19.73;9.98;;;2.50;89.40;;;;;;5082066;28;20490;-76
2022/05/05 01:37:36;;;;;;;16.40;10.68;;;2.40;89.40;;;;;;5092227;28;20031;-75
2022/05/05 01:40:02;;;;;;;19.10;10.98;;;2.40;89.40;;;;;;5091681;28;20028;-75
2022/05/05 01:42:28;;;;;;;18.95;10.43;;;2.40;89.50;;;;;;5072110;28;20061;-76
2022/05/05 01:44:54;;;;;;;19.50;10.75;;;2.40;89.60;;;;;;5074093;28;20024;-76
2022/05/05 01:47:19;;;;;;;20.63;12.52;;;2.40;89.80;;;;;;5071709;28;20364;-75
2022/05/05 01:49:46;;;;;;;22.88;11.77;;;2.40;89.90;;;;;;5074476;28;20028;-76
2022/05/05 01:52:11;;;;;;;22.25;11.95;;;2.30;90.00;;;;;;5086048;28;20028;-75
2022/05/05 01:54:38;;;;;;;23.98;11.95;;;2.30;90.00;;;;;;5055945;28;20033;-75
2022/05/05 01:57:04;;;;;;;22.88;12.10;;;2.30;90.00;;;;;;5071848;28;20051;-75
2022/05/05 01:59:30;;;;;;;22.65;12.20;;;2.20;90.00;;;;;;5075360;28;20435;-75
2022/05/05 02:01:56;;;;;;;22.40;11.70;;;2.20;90.10;;;;;;5075494;28;20051;-76
2022/05/05 02:04:21;;;;;;;23.20;12.05;;;2.20;90.10;;;;;;5069730;28;20060;-76
2022/05/05 02:06:47;;;;;;;19.38;11.50;;;2.20;90.10;;;;;;5070219;28;20373;-76
2022/05/05 02:09:13;;;;;;;20.48;10.77;;;2.10;90.10;;;;;;5071288;28;20032;-76
2022/05/05 02:11:41;;;;;;;23.02;12.02;;;2.10;90.00;;;;;;5076571;28;20086;-77
2022/05/05 02:14:07;;;;;;;17.73;11.77;;;2.10;90.10;;;;;;5076225;28;20047;-76
2022/05/05 02:16:33;;;;;;;23.15;10.98;;;2.10;90.20;;;;;;5073724;28;20125;-76
2022/05/05 02:18:58;;;;;;;22.80;12.35;;;2.10;90.30;;;;;;5071709;28;20033;-77
2022/05/05 02:21:24;;;;;;;19.85;12.45;;;2.10;90.40;;;;;;5075007;28;20056;-76
2022/05/05 02:23:49;;;;;;;22.98;12.38;;;2.10;90.30;;;;;;5058108;28;20036;-77
2022/05/05 02:26:15;;;;;;;23.98;12.70;;;2.00;90.30;;;;;;5067850;28;20041;-77
2022/05/05 02:28:40;;;;;;;21.42;12.00;;;2.00;90.30;;;;;;5054435;28;20395;-76
2022/05/05 02:31:06;;;;;;;25.00;12.27;;;2.00;90.50;;;;;;5069022;28;20387;-76
2022/05/05 02:33:31;;;;;;;22.02;12.93;;;1.90;90.50;;;;;;5073951;28;20036;-75
2022/05/05 02:38:44;;;;;;;21.52;11.85;;;1.80;90.40;;;;;;5065978;28;21904;-75
2022/05/05 02:41:10;;;;;;;22.67;12.38;;;1.80;90.30;;;;;;5059450;28;20055;-75
2022/05/05 02:43:36;;;;;;;25.67;12.75;;;1.70;90.30;;;;;;5078082;28;20119;-75
2022/05/05 02:46:01;;;;;;;22.67;12.32;;;1.70;90.30;;;;;;5078641;28;20560;-75
2022/05/05 02:48:27;;;;;;;21.33;13.55;;;1.80;90.50;;;;;;5070256;28;20037;-75
2022/05/05 02:50:52;;;;;;;20.42;13.50;;;1.80;90.70;;;;;;5049375;28;20033;-76
2022/05/05 02:56:02;;;;;;;24.40;13.75;;;1.80;90.80;;;;;;5072970;28;20170;-75
2022/05/05 02:58:29;;;;;;;26.10;14.27;;;1.80;91.00;;;;;;5072458;28;20112;-75
2022/05/05 03:00:55;;;;;;;22.90;13.90;;;1.90;91.10;;;;;;5070804;28;20035;-75
2022/05/05 03:03:20;;;;;;;22.40;14.20;;;1.80;91.10;;;;;;5069149;28;20415;-75
2022/05/05 03:05:46;;;;;;;26.40;15.20;;;1.80;91.10;;;;;;5072253;28;20034;-75
2022/05/05 03:08:12;;;;;;;30.73;14.93;;;1.80;91.20;;;;;;5052673;28;20032;-75
2022/05/05 03:10:38;;;;;;;33.70;15.77;;;1.80;91.20;;;;;;5077578;28;20036;-75
2022/05/05 03:13:04;;;;;;;26.95;15.50;;;1.90;91.40;;;;;;5074455;28;20372;-75
2022/05/05 03:15:30;;;;;;;23.50;15.00;;;1.90;91.40;;;;;;5069669;28;20040;-75
2022/05/05 03:17:56;;;;;;;28.45;16.08;;;2.00;91.50;;;;;;5076817;28;20036;-75
2022/05/05 03:20:21;;;;;;;27.77;15.63;;;1.90;91.40;;;;;;5066277;28;20056;-75
2022/05/05 03:22:47;;;;;;;25.30;15.77;;;1.80;91.20;;;;;;5063552;28;20036;-75
2022/05/05 03:25:12;;;;;;;27.17;15.38;;;1.80;91.40;;;;;;5071340;28;20036;-75
2022/05/05 03:27:39;;;;;;;28.13;16.10;;;1.80;91.40;;;;;;5078234;28;20032;-75
2022/05/05 03:30:05;;;;;;;25.42;14.77;;;1.80;91.40;;;;;;5070536;28;20532;-75
2022/05/05 03:32:32;;;;;;;25.23;15.38;;;1.80;91.40;;;;;;5071111;28;20029;-75
2022/05/05 03:34:58;;;;;;;31.42;16.50;;;1.80;91.30;;;;;;5063738;28;20028;-76
2022/05/05 03:37:30;;;;;;;29.90;16.77;;;1.90;91.50;;;;;;5051880;28;20039;-75
2022/05/05 03:39:56;;;;;;;27.10;15.20;;;1.90;91.60;;;;;;5069234;28;20073;-75
2022/05/05 03:42:22;;;;;;;28.23;16.58;;;1.90;91.50;;;;;;5085136;28;20059;-75
2022/05/05 03:44:47;;;;;;;26.25;15.43;;;1.90;91.40;;;;;;5084718;28;20036;-75
2022/05/05 03:47:13;;;;;;;26.33;14.88;;;1.90;91.30;;;;;;5070173;28;20025;-75
2022/05/05 03:49:38;;;;;;;30.52;15.30;;;1.80;91.10;;;;;;5078180;28;20063;-76
2022/05/05 03:52:05;;;;;;;25.75;13.85;;;1.90;91.10;;;;;;5076437;28;20287;-75
2022/05/05 03:54:30;;;;;;;25.92;15.32;;;1.90;91.10;;;;;;5069084;28;20035;-75
2022/05/05 03:56:56;;;;;;;26.33;14.65;;;2.00;91.10;;;;;;5072124;28;20431;-75
2022/05/05 03:59:22;;;;;;;24.45;14.45;;;2.00;91.00;;;;;;5059914;28;20406;-75
2022/05/05 04:01:48;;;;;;;21.60;13.85;;;2.10;91.10;;;;;;5072494;28;20032;-75
2022/05/05 04:04:15;;;;;;;27.25;15.52;;;2.10;91.10;;;;;;5068665;28;20036;-75
2022/05/05 04:06:41;;;;;;;24.67;14.70;;;2.10;91.00;;;;;;5073341;28;20032;-75
2022/05/05 04:09:07;;;;;;;25.25;14.23;;;2.10;91.00;;;;;;5072734;28;20040;-75
2022/05/05 04:11:32;;;;;;;28.13;16.60;;;2.20;91.10;;;;;;5073385;28;20090;-76
2022/05/05 04:13:58;;;;;;;25.77;15.30;;;2.20;91.00;;;;;;5069888;28;20037;-76
2022/05/05 04:16:24;;;;;;;23.17;14.80;;;2.30;91.10;;;;;;5066042;28;20024;-76
2022/05/05 04:18:49;;;;;;;23.60;15.57;;;2.30;91.00;;;;;;5081760;28;20040;-71
2022/05/05 04:21:15;;;;;;;24.85;15.48;;;2.40;91.00;;;;;;5074294;28;20130;-71
2022/05/05 04:23:40;;;;;;;26.95;15.90;;;2.40;91.00;;;;;;5070943;28;20387;-71
2022/05/05 04:26:06;;;;;;;27.52;15.98;;;2.50;90.80;;;;;;5081270;28;20033;-70
2022/05/05 04:28:32;;;;;;;26.98;15.95;;;2.50;90.60;;;;;;5073398;28;21006;-71
2022/05/05 04:30:58;;;;;;;29.50;16.67;;;2.50;90.60;;;;;;5083052;28;20068;-69
2022/05/05 04:33:24;;;;;;;28.55;16.67;;;2.60;90.50;;;;;;5076700;28;20510;-68
2022/05/05 04:35:49;;;;;;;29.63;15.75;;;2.60;90.50;;;;;;5071005;28;20032;-69
2022/05/05 04:38:15;;;;;;;25.88;15.68;;;2.70;90.60;;;;;;5077886;28;20024;-69
2022/05/05 04:40:41;;;;;;;24.67;15.73;;;2.80;90.80;;;;;;5082416;28;20115;-70
2022/05/05 04:43:06;;;;;;;23.73;16.25;;;2.90;90.70;;;;;;5070853;28;20032;-70
2022/05/05 04:45:32;;;;;;;24.60;16.30;;;2.90;90.70;;;;;;5071199;28;20082;-70
2022/05/05 04:47:58;;;;;;;25.20;16.15;;;3.00;90.60;;;;;;5070952;28;20085;-70
2022/05/05 04:50:24;;;;;;;26.10;16.60;;;3.00;90.60;;;;;;5070823;28;20024;-70
2022/05/05 04:52:50;;;;;;;27.35;17.10;;;3.00;90.50;;;;;;5068868;28;20032;-70
2022/05/05 04:55:16;;;;;;;25.95;15.65;;;3.10;90.70;;;;;;5063152;28;20024;-70
2022/05/05 04:57:42;;;;;;;30.92;16.45;;;3.10;90.70;;;;;;5068813;28;20487;-70
2022/05/05 05:00:09;;;;;;;28.20;16.73;;;3.20;90.90;;;;;;5071715;28;20059;-70
2022/05/05 05:02:35;;;;;;;29.73;16.67;;;3.40;91.10;;;;;;5064866;28;20033;-70
2022/05/05 05:05:00;;;;;;;27.50;16.38;;;3.50;91.30;;;;;;5063784;28;20482;-69
2022/05/05 05:07:26;;;;;;;23.67;15.57;;;3.60;91.30;;;;;;5071435;28;20155;-70
2022/05/05 05:09:51;;;;;;;28.65;16.67;;;3.70;91.20;;;;;;5065132;28;20044;-70
2022/05/05 05:12:17;;;;;;;31.10;16.77;;;3.80;91.10;;;;;;5072561;28;20078;-70
2022/05/05 05:14:42;;;;;;;26.88;16.88;;;3.90;91.10;;;;;;5089088;28;20032;-70
2022/05/05 05:17:08;;;;;;;30.35;15.70;;;4.00;91.10;;;;;;5075849;28;20107;-70
2022/05/05 05:19:33;;;;;;;26.27;15.00;;;4.10;91.10;;;;;;5073612;28;20028;-70
2022/05/05 05:21:59;;;;;;;19.00;12.48;;;4.20;91.00;;;;;;5058064;28;20046;-70
2022/05/05 05:24:25;;;;;;;24.30;12.90;;;4.40;90.90;;;;;;5089028;28;20031;-70
2022/05/05 05:26:50;;;;;;;17.40;11.05;;;4.50;90.70;;;;;;5073394;28;20044;-70
2022/05/05 05:29:16;;;;;;;14.18;10.15;;;4.70;90.30;;;;;;5060680;28;20050;-70
2022/05/05 05:31:41;;;;;;;20.88;10.60;;;4.90;89.70;;;;;;5082094;28;20080;-70
2022/05/05 05:34:07;;;;;;;17.30;9.38;;;5.10;89.00;;;;;;5082154;28;20036;-70
2022/05/05 05:36:32;;;;;;;12.43;8.05;;;5.30;88.30;;;;;;5076233;28;20033;-70
2022/05/05 05:38:58;;;;;;;13.15;8.80;;;5.40;87.60;;;;;;5075290;28;20028;-70
2022/05/05 05:41:23;;;;;;;16.10;7.65;;;5.60;86.90;;;;;;5078886;28;20454;-70
2022/05/05 05:43:49;;;;;;;14.80;7.82;;;5.70;86.30;;;;;;5090049;28;20038;-70
2022/05/05 05:46:15;;;;;;;11.27;7.75;;;5.90;85.70;;;;;;5089696;28;20020;-71
2022/05/05 05:48:41;;;;;;;13.45;7.85;;;6.00;85.40;;;;;;5092450;28;20058;-71
2022/05/05 05:51:07;;;;;;;12.02;6.93;;;6.10;84.70;;;;;;5098863;28;20093;-70
2022/05/05 05:53:32;;;;;;;13.38;6.20;;;6.30;84.10;;;;;;5093399;28;20553;-70
2022/05/05 05:55:58;;;;;;;9.82;6.07;;;6.50;83.50;;;;;;5088901;28;20356;-71
2022/05/05 05:58:23;;;;;;;13.50;7.18;;;6.70;83.50;;;;;;5091754;28;20047;-71
2022/05/05 06:00:49;;;;;;;12.55;6.93;;;6.80;82.60;;;;;;5087878;28;20031;-71
2022/05/05 06:05:59;;;;;;;11.77;5.40;;;7.00;81.40;;;;;;5088249;28;20433;-71
2022/05/05 06:08:25;;;;;;;9.05;5.35;;;7.20;81.00;;;;;;5091288;28;20028;-71
2022/05/05 06:10:51;;;;;;;8.57;4.90;;;7.30;80.70;;;;;;5090541;28;20096;-71
2022/05/05 06:13:16;;;;;;;7.88;5.45;;;7.50;79.90;;;;;;5089954;28;20032;-71
2022/05/05 06:15:42;;;;;;;7.65;4.78;;;7.60;80.60;;;;;;5091593;28;20035;-71
2022/05/05 06:18:07;;;;;;;11.10;6.50;;;7.70;80.10;;;;;;5092701;28;20032;-70
2022/05/05 06:20:33;;;;;;;12.40;5.25;;;7.80;80.10;;;;;;5080324;28;20036;-71
2022/05/05 06:22:59;;;;;;;10.63;5.10;;;7.80;78.90;;;;;;5091814;28;20103;-71
2022/05/05 06:25:25;;;;;;;12.85;4.93;;;7.90;78.30;;;;;;5092922;28;20088;-71
2022/05/05 06:27:51;;;;;;;10.05;5.30;;;8.10;78.20;;;;;;5092632;28;20119;-71
2022/05/05 06:30:17;;;;;;;10.48;4.68;;;8.20;77.00;;;;;;5091920;28;20530;-71
2022/05/05 06:32:44;;;;;;;10.70;4.75;;;8.40;76.70;;;;;;5092217;28;20093;-71
2022/05/05 06:35:10;;;;;;;8.52;4.68;;;8.50;75.80;;;;;;5092776;28;20032;-71
2022/05/05 06:37:37;;;;;;;13.30;5.10;;;8.50;75.50;;;;;;5088211;28;20081;-71
2022/05/05 06:40:04;;;;;;;9.18;5.13;;;8.70;75.90;;;;;;5092752;28;20040;-71
2022/05/05 06:42:29;;;;;;;10.52;4.30;;;8.90;75.60;;;;;;5092113;28;20044;-71
2022/05/05 06:44:55;;;;;;;11.65;3.78;;;8.90;74.80;;;;;;5092618;28;20051;-71
2022/05/05 06:47:21;;;;;;;8.77;4.10;;;8.80;74.50;;;;;;5080300;28;20032;-71
2022/05/05 06:49:47;;;;;;;5.80;3.88;;;9.00;74.60;;;;;;5091384;28;20028;-71
2022/05/05 06:52:12;;;;;;;9.30;3.28;;;9.00;73.70;;;;;;5090680;28;20040;-71
2022/05/05 06:54:38;;;;;;;5.90;2.50;;;9.20;73.80;;;;;;5084204;28;20066;-71
2022/05/05 06:57:04;;;;;;;8.73;3.38;;;9.50;73.20;;;;;;5082779;28;20032;-71
2022/05/05 06:59:30;;;;;;;4.40;3.05;;;9.70;72.40;;;;;;5092032;28;20467;-75
2022/05/05 07:02:00;;;;;;;6.35;2.65;;;9.90;72.50;;;;;;5110116;28;20020;-71
2022/05/05 07:07:13;;;;;;;3.28;1.35;;;10.20;69.50;;;;;;5088628;28;20031;-71
2022/05/05 07:12:24;;;;;;;5.93;1.40;;;10.60;68.40;;;;;;5080702;28;20050;-71
2022/05/05 07:14:50;;;;;;;3.92;1.27;;;10.60;67.40;;;;;;5091753;28;20032;-71
2022/05/05 07:17:15;;;;;;;3.10;1.10;;;10.60;67.30;;;;;;5091908;28;20074;-71
2022/05/05 07:19:41;;;;;;;5.32;1.70;;;10.70;65.30;;;;;;5091466;28;20032;-71
2022/05/05 07:22:07;;;;;;;5.38;1.27;;;11.10;67.10;;;;;;5086904;28;20490;-71
2022/05/05 07:24:33;;;;;;;6.38;1.45;;;11.40;66.60;;;;;;5091229;28;20021;-71
2022/05/05 07:27:00;;;;;;;6.82;1.63;;;11.30;65.40;;;;;;5089059;28;20016;-71
2022/05/05 07:29:25;;;;;;;6.57;1.30;;;11.50;64.80;;;;;;5101762;28;20123;-71
2022/05/05 07:31:51;;;;;;;6.97;1.98;;;11.30;65.50;;;;;;5073187;28;20123;-71
2022/05/05 07:34:18;;;;;;;5.75;1.83;;;11.00;65.70;;;;;;5071915;28;20032;-71
2022/05/05 07:36:44;;;;;;;5.93;1.85;;;11.00;65.10;;;;;;5087655;28;20387;-71
2022/05/05 07:39:10;;;;;;;6.05;1.90;;;10.80;66.70;;;;;;5087558;28;20028;-71
2022/05/05 07:41:35;;;;;;;6.68;1.85;;;10.60;65.90;;;;;;5090504;28;20048;-71
2022/05/05 07:44:01;;;;;;;6.45;2.22;;;11.00;66.50;;;;;;5090476;28;20028;-71
2022/05/05 07:46:27;;;;;;;5.63;1.75;;;11.00;65.10;;;;;;5091143;28;20024;-71
2022/05/05 07:48:54;;;;;;;5.50;2.05;;;11.50;66.20;;;;;;5089872;28;20020;-71
2022/05/05 07:51:20;;;;;;;4.82;1.60;;;11.60;65.20;;;;;;5090662;28;20467;-71
2022/05/05 07:54:34;;;;;;;8.27;1.95;;;11.60;63.90;;;;;;5090112;28;20080;-71
2022/05/05 07:56:33;;;;;;;4.82;1.90;;;11.40;65.40;;;;;;5083112;28;20360;-71
2022/05/05 07:58:59;;;;;;;4.93;1.98;;;11.30;65.40;;;;;;5090912;28;20025;-71
2022/05/05 08:01:25;;;;;;;6.50;2.05;;;11.20;65.40;;;;;;5085737;28;20021;-71
2022/05/05 08:03:50;;;;;;;7.72;1.95;;;11.40;65.70;;;;;;5103714;28;20474;-71
2022/05/05 08:06:16;;;;;;;6.50;2.30;;;11.00;64.80;;;;;;5087809;28;20107;-71
2022/05/05 08:08:41;;;;;;;6.28;2.03;;;11.10;66.40;;;;;;5088905;28;20044;-71
2022/05/05 08:11:07;;;;;;;4.43;2.00;;;11.30;65.50;;;;;;5089263;28;20136;-71
2022/05/05 08:13:33;;;;;;;6.70;1.73;;;11.40;64.60;;;;;;5089652;28;20479;-71
2022/05/05 08:15:58;;;;;;;10.27;2.10;;;11.70;65.40;;;;;;5106430;28;20168;-71
2022/05/05 08:18:24;;;;;;;7.00;1.90;;;11.80;63.90;;;;;;5067449;28;20029;-71
2022/05/05 08:20:50;;;;;;;7.32;2.22;;;12.10;64.50;;;;;;5084870;28;20052;-71
2022/05/05 08:23:15;;;;;;;4.82;1.80;;;12.10;63.60;;;;;;5088117;28;20052;-71
2022/05/05 08:28:28;;;;;;;5.60;1.90;;;13.20;60.90;;;;;;5078299;28;20039;-71
2022/05/05 08:30:54;;;;;;;6.30;1.65;;;13.00;59.50;;;;;;5090609;28;20032;-71
2022/05/05 08:33:19;;;;;;;7.45;1.77;;;12.80;59.80;;;;;;5090817;28;20024;-71
2022/05/05 08:35:45;;;;;;;5.22;1.30;;;13.50;59.50;;;;;;5082241;28;20078;-71
2022/05/05 08:38:11;;;;;;;4.35;1.48;;;13.80;58.50;;;;;;5094671;28;20035;-71
2022/05/05 08:40:40;;;;;;;4.80;1.40;;;14.00;53.60;;;;;;5085640;28;20028;-72
2022/05/05 08:43:05;;;;;;;5.50;1.45;;;13.80;54.00;;;;;;5089127;28;20124;-71
2022/05/05 08:45:32;;;;;;;5.72;1.45;;;13.60;52.30;;;;;;5085953;28;20106;-71
2022/05/05 08:47:59;;;;;;;5.85;1.40;;;13.50;55.20;;;;;;5094351;28;20031;-71
2022/05/05 08:50:25;;;;;;;4.53;1.38;;;13.60;54.60;;;;;;5082291;28;20031;-71
2022/05/05 08:52:51;;;;;;;7.50;1.67;;;13.90;54.80;;;;;;5084779;28;20390;-72
2022/05/05 08:55:20;;;;;;;9.05;1.40;;;14.30;51.90;;;;;;5087669;28;20606;-71
2022/05/05 08:57:46;;;;;;;3.75;1.30;;;14.90;51.00;;;;;;5089749;28;20020;-71
2022/05/05 09:00:14;;;;;;;6.43;2.00;;;15.00;51.30;;;;;;5089553;28;20032;-71
2022/05/05 09:02:41;;;;;;;6.25;1.60;;;14.70;51.20;;;;;;5086175;28;20169;-71
2022/05/05 09:05:08;;;;;;;5.63;1.65;;;14.20;52.80;;;;;;5087730;28;20126;-71
2022/05/05 09:07:50;;;;;;;7.45;2.13;;;14.30;51.30;;;;;;5088171;28;20082;-71
2022/05/05 09:10:19;;;;;;;4.97;1.70;;;14.00;51.70;;;;;;5087158;28;20050;-71
2022/05/05 09:12:58;;;;;;;7.47;1.35;;;14.00;52.10;;;;;;5093481;28;20024;-71
2022/05/05 09:15:30;;;;;;;4.10;1.50;;;14.90;54.00;;;;;;5087089;28;20389;-72
2022/05/05 09:18:09;;;;;;;3.28;1.50;;;14.80;49.20;;;;;;5092692;28;20089;-72
2022/05/05 09:20:35;;;;;;;3.00;1.38;;;15.10;50.70;;;;;;5091319;28;20039;-71
2022/05/05 09:23:01;;;;;;;4.18;1.65;;;15.10;48.60;;;;;;5100595;28;20028;-71
2022/05/05 09:25:44;;;;;;;4.55;1.67;;;14.70;49.30;;;;;;5086462;28;20030;-72
2022/05/05 09:28:16;;;;;;;4.15;1.25;;;15.00;48.30;;;;;;5090852;28;20028;-71
2022/05/05 09:30:52;;;;;;;6.20;1.48;;;15.40;48.60;;;;;;5077381;28;20032;-72
2022/05/05 09:33:38;;;;;;;5.13;1.70;;;15.80;47.80;;;;;;5084137;28;20089;-71
2022/05/05 09:36:05;;;;;;;5.97;1.67;;;15.70;48.50;;;;;;5092520;28;20062;-71
2022/05/05 09:38:54;;;;;;;7.15;1.65;;;15.80;46.90;;;;;;5068347;28;20035;-71
2022/05/05 09:41:32;;;;;;;9.88;2.15;;;15.40;48.70;;;;;;5091186;28;20056;-71
2022/05/05 09:44:15;;;;;;;5.35;1.70;;;15.40;47.80;;;;;;5075424;28;20032;-71
2022/05/05 09:46:43;;;;;;;6.72;1.70;;;15.10;48.80;;;;;;5085980;28;20020;-71
2022/05/05 09:49:14;;;;;;;4.20;1.77;;;15.40;46.60;;;;;;5089860;28;20081;-71
2022/05/05 09:57:39;;;;;;;4.93;1.90;;;15.10;47.10;;;;;;5092058;28;20036;-72
2022/05/05 10:00:19;;;;;;;4.28;1.70;;;16.70;44.30;;;;;;5085172;28;20151;-72
2022/05/05 10:05:32;;;;;;;5.10;2.00;;;16.20;44.70;;;;;;5092995;28;20123;-71
2022/05/05 10:07:57;;;;;;;5.32;1.77;;;16.50;46.90;;;;;;5093481;28;20036;-72
2022/05/05 10:10:23;;;;;;;4.85;1.58;;;16.70;45.50;;;;;;5088668;28;20474;-71
2022/05/05 10:12:50;;;;;;;7.10;1.50;;;16.50;44.70;;;;;;5089309;28;20433;-72
2022/05/05 10:15:16;;;;;;;7.38;1.42;;;16.80;43.30;;;;;;5088892;28;20687;-72
2022/05/05 10:17:43;;;;;;;6.68;1.45;;;17.00;44.60;;;;;;5089910;28;20028;-72
2022/05/05 10:20:12;;;;;;;4.25;1.70;;;17.40;44.00;;;;;;5090447;28;20035;-72
2022/05/05 10:22:47;;;;;;;3.15;1.48;;;17.20;43.80;;;;;;5087287;28;20024;-72
2022/05/05 10:25:24;;;;;;;6.40;2.08;;;17.30;42.60;;;;;;5089821;28;20370;-72
2022/05/05 10:27:49;;;;;;;6.15;1.75;;;17.80;42.20;;;;;;5091254;28;20028;-72
2022/05/05 10:30:16;;;;;;;6.43;1.60;;;17.30;43.20;;;;;;5093832;28;20072;-72
2022/05/05 10:32:42;;;;;;;5.07;1.67;;;17.40;42.40;;;;;;5090556;28;20071;-72
2022/05/05 10:35:21;;;;;;;5.63;1.50;;;18.10;41.90;;;;;;5085364;28;20531;-72
2022/05/05 10:37:47;;;;;;;5.70;1.50;;;18.00;41.90;;;;;;5088952;28;20028;-72
2022/05/05 10:40:12;;;;;;;4.95;1.58;;;17.50;42.30;;;;;;5090786;28;20028;-72
2022/05/05 10:42:41;;;;;;;4.38;1.73;;;17.90;42.40;;;;;;5081946;28;20105;-72
2022/05/05 10:45:30;;;;;;;5.43;1.55;;;18.20;41.80;;;;;;5067207;28;20460;-72
2022/05/05 10:47:58;;;;;;;3.53;1.45;;;18.00;43.40;;;;;;5086045;28;20419;-72
2022/05/05 10:50:33;;;;;;;3.30;1.40;;;17.60;41.40;;;;;;5091826;28;20386;-72
2022/05/05 10:53:00;;;;;;;5.90;1.40;;;17.80;42.20;;;;;;5077080;28;20051;-72
2022/05/05 10:55:32;;;;;;;4.30;1.40;;;18.40;42.50;;;;;;5071070;28;20369;-72
2022/05/05 10:57:57;;;;;;;4.72;1.55;;;18.20;40.90;;;;;;5085212;28;20475;-73
2022/05/05 11:00:24;;;;;;;2.85;1.63;;;18.50;42.00;;;;;;5091934;28;20035;-72
2022/05/05 11:02:58;;;;;;;5.00;1.40;;;18.50;41.80;;;;;;5097470;28;20024;-73
2022/05/05 11:05:27;;;;;;;4.57;1.67;;;18.80;42.20;;;;;;5073233;28;20475;-72
2022/05/05 11:08:14;;;;;;;4.60;1.40;;;17.90;43.50;;;;;;5086021;28;20024;-72
2022/05/05 11:13:46;;;;;;;8.80;1.77;;;18.40;41.00;;;;;;5097147;28;20062;-72
2022/05/05 11:22:11;;;;;;;6.75;1.40;;;19.50;42.90;;;;;;5086822;28;20631;-73
2022/05/05 11:24:37;;;;;;;;;;;19.60;39.40;;;;;;5092730;28;20386;-73
2022/05/05 11:27:03;;;;;;;4.60;1.50;;;19.00;40.60;;;;;;5091060;28;19908;-72
2022/05/05 11:29:32;;;;;;;5.13;1.40;;;19.20;40.50;;;;;;5091715;28;20058;-72
2022/05/05 11:31:59;;;;;;;7.47;1.75;;;19.10;39.70;;;;;;5091296;28;20047;-72
2022/05/05 11:34:34;;;;;;;3.70;1.73;;;19.70;40.10;;;;;;5091215;28;20036;-72
2022/05/05 11:37:01;;;;;;;4.32;1.40;;;20.00;39.70;;;;;;5085668;28;20064;-72
2022/05/05 11:39:28;;;;;;;5.28;1.67;;;20.10;38.90;;;;;;5091213;28;20028;-72
2022/05/05 11:42:07;;;;;;;5.65;1.60;;;20.30;39.50;;;;;;5090012;28;20048;-72
2022/05/05 11:44:40;;;;;;;4.45;1.60;;;19.70;39.30;;;;;;5085785;28;20028;-72
2022/05/05 11:47:19;;;;;;;3.88;1.67;;;20.30;39.80;;;;;;5089927;28;20103;-72
2022/05/05 11:49:47;;;;;;;3.85;1.65;;;20.50;37.70;;;;;;5090642;28;20093;-72
2022/05/05 11:52:21;;;;;;;2.95;1.40;;;20.00;39.00;;;;;;5090306;28;20042;-72
2022/05/05 11:54:48;;;;;;;4.93;1.60;;;19.90;39.20;;;;;;5090682;28;20016;-72
2022/05/05 11:57:39;;;;;;;5.63;1.63;;;19.60;39.70;;;;;;5091127;28;20381;-72
2022/05/05 12:02:51;;;;;;;3.03;1.25;;;20.70;38.80;;;;;;5089727;28;20103;-72
2022/05/05 12:05:20;;;;;;;4.75;1.20;;;19.90;39.20;;;;;;5081680;28;20028;-72
2022/05/05 12:07:46;;;;;;;4.20;1.35;;;20.90;40.00;;;;;;5088191;28;20028;-72
2022/05/05 12:10:16;;;;;;;4.53;1.13;;;20.20;38.90;;;;;;5085257;28;20074;-72
2022/05/05 12:12:49;;;;;;;4.88;1.20;;;21.00;38.80;;;;;;5089954;28;20479;-73
2022/05/05 12:15:17;;;;;;;2.72;1.08;;;20.50;37.50;;;;;;5089764;28;20032;-72
2022/05/05 12:17:47;;;;;;;2.97;1.10;;;20.10;38.30;;;;;;5082228;28;20425;-73
2022/05/05 12:20:15;;;;;;;6.45;1.70;;;20.00;38.10;;;;;;5084070;28;20027;-73
2022/05/05 12:22:43;;;;;;;8.18;1.13;;;20.70;38.10;;;;;;5086806;28;20143;-73
2022/05/05 12:25:14;;;;;;;3.63;0.98;;;21.70;36.60;;;;;;5088765;28;20073;-72
2022/05/05 12:27:40;;;;;;;;;;;21.70;34.70;;;;;;5085089;28;20031;-72
2022/05/05 12:30:06;;;;;;;3.50;1.25;;;22.10;36.00;;;;;;5088449;28;20416;-71
2022/05/05 12:32:32;;;;;;;3.25;1.33;;;22.80;35.20;;;;;;5082282;28;20036;-71
2022/05/05 12:35:06;;;;;;;2.33;1.13;;;21.50;35.40;;;;;;5087351;28;20105;-71
2022/05/05 12:37:32;;;;;;;4.32;1.20;;;22.00;38.10;;;;;;5084943;28;20044;-71
2022/05/05 12:40:05;;;;;;;2.20;1.15;;;22.70;34.30;;;;;;5091197;28;20130;-71
2022/05/05 12:42:47;;;;;;;4.28;1.60;;;22.50;33.90;;;;;;5090854;28;20414;-71
2022/05/05 12:45:24;;;;;;;2.85;1.63;;;21.00;36.50;;;;;;5088773;28;20359;-71
2022/05/05 12:47:51;;;;;;;7.55;1.50;;;21.20;36.10;;;;;;5086957;28;20348;-71
2022/05/05 12:50:34;;;;;;;5.00;1.85;;;21.20;37.40;;;;;;5072598;28;20035;-71
2022/05/05 13:01:49;;;;;;;7.07;1.75;;;22.90;35.60;;;;;;5095579;28;20080;-71
2022/05/05 13:04:17;;;;;;;3.35;1.45;;;23.50;34.00;;;;;;5090553;28;20040;-71
2022/05/05 13:06:53;;;;;;;5.60;1.70;;;22.80;35.30;;;;;;5088107;28;20020;-71
2022/05/05 13:09:20;;;;;;;4.15;1.80;;;23.00;33.00;;;;;;5088281;28;20032;-71
2022/05/05 13:11:53;;;;;;;6.13;1.77;;;23.00;34.70;;;;;;5088731;28;20092;-71
2022/05/05 13:14:20;;;;;;;4.03;1.60;;;22.50;35.00;;;;;;5090408;28;20055;-72
2022/05/05 13:16:47;;;;;;;14.93;5.03;;;21.50;37.30;;;;;;5095134;28;20043;-71
2022/05/05 13:19:12;;;;;;;19.98;4.53;;;21.20;37.00;;;;;;5089020;28;20032;-71
2022/05/05 13:21:41;;;;;;;4.13;1.52;;;21.50;37.10;;;;;;5094266;28;20035;-72
2022/05/05 13:24:09;;;;;;;5.18;1.77;;;22.90;35.80;;;;;;5091384;28;20032;-71
2022/05/05 13:26:37;;;;;;;5.43;1.67;;;22.00;35.60;;;;;;5083672;28;20036;-71
2022/05/05 13:29:03;;;;;;;4.00;1.65;;;21.60;36.70;;;;;;5084364;28;20027;-71
2022/05/05 13:31:29;;;;;;;4.78;1.70;;;21.80;36.10;;;;;;5093019;28;20075;-71
2022/05/05 13:33:54;;;;;;;5.32;1.80;;;21.50;36.80;;;;;;5091832;28;20039;-71
2022/05/05 13:36:20;;;;;;;3.67;1.45;;;22.50;37.90;;;;;;5089118;28;20121;-71
2022/05/05 13:38:47;;;;;;;3.40;1.60;;;22.20;37.10;;;;;;5092362;28;20491;-71
2022/05/05 13:41:12;;;;;;;4.55;1.00;;;23.30;35.50;;;;;;5089894;28;20056;-72
2022/05/05 13:43:39;;;;;;;4.53;1.33;;;23.20;35.90;;;;;;5094549;28;20135;-71